Time;durP1;ratioP1;P1;durP2;ratioP2;P2;SDS_P1;SDS_P2;PMS_P1;PMS_P2;Temp;Humidity;BMP_temperature;BMP_pressure;BME280_temperature;BME280_humidity;BME280_pressure;Samples;Min_cycle;Max_cycle;Signal;HPM_P1;HPM_P2
2023/02/23 00:01:50;;;;;;;6.80;5.63;;;15.60;65.80;;;;;;6276275;22;20003;-81
2023/02/23 00:04:17;;;;;;;5.78;5.18;;;15.60;66.00;;;;;;6286244;22;20022;-79
2023/02/23 00:06:43;;;;;;;6.75;4.95;;;15.60;65.80;;;;;;6286257;22;19996;-80
2023/02/23 00:09:21;;;;;;;6.35;5.07;;;15.60;65.90;;;;;;6286262;22;20435;-80
2023/02/23 00:11:51;;;;;;;5.68;4.78;;;15.60;65.90;;;;;;6286259;22;20025;-78
2023/02/23 00:14:17;;;;;;;5.70;4.93;;;15.60;65.90;;;;;;6286253;22;19996;-78
2023/02/23 00:16:44;;;;;;;4.75;4.07;;;15.60;65.90;;;;;;6248691;22;20465;-80
2023/02/23 00:19:12;;;;;;;5.70;4.45;;;15.60;65.90;;;;;;6286160;22;19996;-77
2023/02/23 00:21:39;;;;;;;6.53;4.78;;;15.60;65.80;;;;;;6276149;22;20019;-78
2023/02/23 00:24:08;;;;;;;5.78;4.80;;;15.60;65.80;;;;;;6286124;22;20060;-78
2023/02/23 00:26:35;;;;;;;5.82;4.53;;;15.60;65.90;;;;;;6285966;22;20074;-80
2023/02/23 00:29:15;;;;;;;5.30;4.68;;;15.60;65.80;;;;;;6286181;22;19999;-78
2023/02/23 00:31:43;;;;;;;5.28;4.22;;;15.60;65.80;;;;;;6286257;22;19992;-80
2023/02/23 00:34:11;;;;;;;4.30;3.90;;;15.60;65.80;;;;;;6286060;22;20331;-78
2023/02/23 00:36:37;;;;;;;5.65;4.55;;;15.60;65.80;;;;;;6286085;22;20053;-80
2023/02/23 00:39:24;;;;;;;5.05;4.40;;;15.60;65.80;;;;;;6285944;22;20070;-78
2023/02/23 00:41:54;;;;;;;5.25;4.50;;;15.60;65.70;;;;;;6286006;22;20003;-79
2023/02/23 00:44:22;;;;;;;4.40;3.95;;;15.60;65.80;;;;;;6275903;22;20304;-79
2023/02/23 00:46:50;;;;;;;5.30;4.22;;;15.60;66.40;;;;;;6286196;22;20300;-79
2023/02/23 00:49:16;;;;;;;4.82;4.32;;;15.60;65.80;;;;;;6248584;22;20000;-78
2023/02/23 00:51:42;;;;;;;6.43;4.55;;;15.60;65.80;;;;;;6285768;22;20338;-79
2023/02/23 00:54:10;;;;;;;4.00;3.60;;;15.60;65.80;;;;;;6285930;22;20002;-79
2023/02/23 00:56:37;;;;;;;5.75;4.57;;;15.60;65.80;;;;;;6285855;22;20355;-79
2023/02/23 00:59:02;;;;;;;4.35;3.60;;;15.60;65.70;;;;;;6285883;22;19996;-78
2023/02/23 01:01:28;;;;;;;4.75;4.05;;;15.60;65.80;;;;;;6285835;22;20426;-79
2023/02/23 01:03:53;;;;;;;4.57;4.18;;;15.60;65.70;;;;;;6285904;22;20003;-78
2023/02/23 01:06:20;;;;;;;4.65;3.72;;;15.60;65.70;;;;;;6275610;22;19991;-79
2023/02/23 01:08:48;;;;;;;4.65;4.13;;;15.60;65.70;;;;;;6275983;22;20368;-79
2023/02/23 01:11:20;;;;;;;4.35;3.95;;;15.60;65.60;;;;;;6275561;22;20441;-79
2023/02/23 01:13:47;;;;;;;4.90;4.10;;;15.60;65.70;;;;;;6275435;22;19995;-78
2023/02/23 01:16:19;;;;;;;4.22;3.83;;;15.60;65.70;;;;;;6275522;22;20015;-78
2023/02/23 01:18:45;;;;;;;4.00;3.53;;;15.50;66.30;;;;;;6275784;22;20037;-78
2023/02/23 01:21:29;;;;;;;5.57;4.18;;;15.50;65.60;;;;;;6275813;22;20003;-78
2023/02/23 01:23:56;;;;;;;4.43;3.78;;;15.60;65.60;;;;;;6275814;22;20004;-79
2023/02/23 01:26:23;;;;;;;4.93;3.83;;;15.50;65.60;;;;;;6275380;22;20086;-80
2023/02/23 01:28:54;;;;;;;5.07;4.30;;;15.50;66.20;;;;;;6275700;22;20006;-78
2023/02/23 01:31:21;;;;;;;4.70;3.92;;;15.60;65.60;;;;;;6275697;22;19996;-80
2023/02/23 01:33:55;;;;;;;4.90;4.18;;;15.60;65.70;;;;;;6275625;22;20003;-78
2023/02/23 01:36:21;;;;;;;3.78;3.38;;;15.60;65.60;;;;;;6275758;22;19996;-79
2023/02/23 01:38:48;;;;;;;4.78;4.07;;;15.50;65.60;;;;;;6275327;22;19996;-78
2023/02/23 01:41:15;;;;;;;4.30;3.70;;;15.60;65.70;;;;;;6275672;22;20000;-78
2023/02/23 01:43:55;;;;;;;4.63;3.92;;;15.60;65.70;;;;;;6275331;22;20439;-78
2023/02/23 01:46:21;;;;;;;4.63;4.13;;;15.50;65.60;;;;;;6275607;22;20056;-79
2023/02/23 01:48:47;;;;;;;4.88;4.07;;;15.50;65.60;;;;;;6275659;22;19996;-79
2023/02/23 01:51:18;;;;;;;4.63;3.90;;;15.50;65.60;;;;;;6277223;22;20434;-79
2023/02/23 01:53:52;;;;;;;4.90;4.18;;;15.60;65.60;;;;;;6277472;22;20369;-79
2023/02/23 01:56:24;;;;;;;4.25;3.60;;;15.50;65.60;;;;;;6277465;22;19995;-79
2023/02/23 01:58:53;;;;;;;4.13;3.72;;;15.60;65.60;;;;;;6277383;22;19996;-79
2023/02/23 02:01:20;;;;;;;5.32;4.13;;;15.50;65.50;;;;;;6277082;22;19992;-79
2023/02/23 02:03:56;;;;;;;4.65;3.88;;;15.50;65.60;;;;;;6276890;22;20450;-78
2023/02/23 02:06:28;;;;;;;4.38;3.72;;;15.50;65.60;;;;;;6277122;22;19996;-81
2023/02/23 02:08:59;;;;;;;4.47;3.65;;;15.50;65.60;;;;;;6277556;22;20007;-80
2023/02/23 02:11:29;;;;;;;4.70;3.85;;;15.50;65.50;;;;;;6277087;22;20075;-80
2023/02/23 02:14:11;;;;;;;4.40;3.60;;;15.50;65.50;;;;;;6277106;22;19996;-80
2023/02/23 02:16:42;;;;;;;3.70;3.17;;;15.50;65.50;;;;;;6277529;22;20004;-80
2023/02/23 02:19:32;;;;;;;4.13;3.45;;;15.50;65.50;;;;;;6277120;22;20002;-80
2023/02/23 02:22:38;;;;;;;5.32;4.10;;;15.50;65.50;;;;;;6207180;22;20339;-76
2023/02/23 02:25:19;;;;;;;4.60;3.53;;;15.50;65.40;;;;;;6276578;22;20058;-77
2023/02/23 02:27:48;;;;;;;5.55;4.35;;;15.50;65.50;;;;;;6276825;22;20004;-76
2023/02/23 02:30:38;;;;;;;4.87;4.23;;;15.50;66.20;;;;;;6277279;22;20004;-74
2023/02/23 02:33:16;;;;;;;4.50;3.55;;;15.50;65.50;;;;;;6277361;22;20327;-76
2023/02/23 02:36:04;;;;;;;3.55;3.20;;;15.50;65.50;;;;;;6277152;22;19999;-74
2023/02/23 02:38:52;;;;;;;3.65;3.30;;;15.50;65.50;;;;;;6277393;22;20001;-76
2023/02/23 02:41:41;;;;;;;4.78;3.95;;;15.50;65.40;;;;;;6277186;22;19992;-74
2023/02/23 02:44:09;;;;;;;3.75;3.30;;;15.50;65.40;;;;;;6277086;22;20015;-76
2023/02/23 02:46:39;;;;;;;4.95;3.78;;;15.40;65.40;;;;;;6276998;22;20323;-74
2023/02/23 02:49:28;;;;;;;4.43;4.03;;;15.50;65.40;;;;;;6277033;22;20006;-76
2023/02/23 02:52:04;;;;;;;4.80;4.07;;;15.50;65.40;;;;;;6276980;22;20373;-76
2023/02/23 02:54:38;;;;;;;3.55;3.20;;;15.50;65.40;;;;;;6276986;22;20075;-76
2023/02/23 02:57:06;;;;;;;3.88;3.47;;;15.40;65.30;;;;;;6276977;22;20003;-74
2023/02/23 04:17:45;;;;;;;3.50;3.10;;;15.50;65.30;;;;;;6286267;22;20381;-74
2023/02/23 04:20:13;;;;;;;3.88;3.47;;;15.50;65.40;;;;;;6286039;22;20027;-76
2023/02/23 04:22:38;;;;;;;3.83;3.00;;;15.50;65.30;;;;;;6285969;22;20141;-76
2023/02/23 04:25:07;;;;;;;4.28;3.70;;;15.50;65.40;;;;;;6285875;22;20762;-76
2023/02/23 04:27:34;;;;;;;3.92;3.20;;;15.50;65.30;;;;;;6286209;22;20003;-76
2023/02/23 04:30:00;;;;;;;3.20;2.90;;;15.50;65.40;;;;;;6286011;22;20078;-76
2023/02/23 04:32:25;;;;;;;3.75;3.20;;;15.50;65.40;;;;;;6286006;22;20398;-75
2023/02/23 04:34:51;;;;;;;3.85;2.80;;;15.50;65.30;;;;;;6285994;22;19992;-76
2023/02/23 04:37:17;;;;;;;3.97;3.03;;;15.50;65.30;;;;;;6285902;22;20037;-76
2023/02/23 04:39:47;;;;;;;3.83;3.20;;;15.50;65.30;;;;;;6286040;22;19992;-77
2023/02/23 04:42:13;;;;;;;3.40;3.10;;;15.50;65.30;;;;;;6275507;22;20083;-77
2023/02/23 04:44:38;;;;;;;3.88;3.47;;;15.50;65.40;;;;;;6275965;22;20308;-77
2023/02/23 04:47:04;;;;;;;3.85;3.45;;;15.50;65.40;;;;;;6285974;22;20082;-77
2023/02/23 04:49:30;;;;;;;4.20;3.30;;;15.50;65.40;;;;;;6285873;22;20049;-76
2023/02/23 04:51:55;;;;;;;3.35;2.92;;;15.60;65.40;;;;;;6285825;22;20026;-77
2023/02/23 04:54:21;;;;;;;3.70;3.40;;;15.50;65.30;;;;;;6285815;22;20002;-77
2023/02/23 04:56:46;;;;;;;3.40;3.10;;;15.60;65.30;;;;;;6286156;22;20049;-76
2023/02/23 04:59:12;;;;;;;3.38;2.97;;;15.60;65.40;;;;;;6285886;22;20022;-75
2023/02/23 05:01:38;;;;;;;4.82;3.83;;;15.60;65.40;;;;;;6287434;22;19992;-76
2023/02/23 05:04:04;;;;;;;6.53;4.38;;;15.50;65.30;;;;;;6293570;22;20024;-78
2023/02/23 05:06:30;;;;;;;7.10;4.47;;;15.50;65.30;;;;;;6285845;22;20000;-76
2023/02/23 05:08:56;;;;;;;4.43;3.80;;;15.50;65.40;;;;;;6285927;22;20018;-76
2023/02/23 05:11:22;;;;;;;6.03;4.43;;;15.50;65.40;;;;;;6285891;22;20327;-78
2023/02/23 05:13:47;;;;;;;8.88;4.80;;;15.50;65.40;;;;;;6285836;22;20446;-76
2023/02/23 05:16:13;;;;;;;7.00;5.45;;;15.50;65.40;;;;;;6285767;22;20062;-76
2023/02/23 05:18:39;;;;;;;7.25;4.93;;;15.50;65.40;;;;;;6285660;22;19996;-73
2023/02/23 05:21:06;;;;;;;6.72;4.65;;;15.50;65.40;;;;;;6285658;22;20003;-74
2023/02/23 05:23:36;;;;;;;7.80;4.63;;;15.60;65.40;;;;;;6285845;22;20453;-73
2023/02/23 05:26:05;;;;;;;7.20;5.07;;;15.60;65.40;;;;;;6287604;22;20100;-75
2023/02/23 05:28:31;;;;;;;7.38;5.30;;;15.50;65.40;;;;;;6288037;22;20319;-73
2023/02/23 05:30:57;;;;;;;6.65;4.75;;;15.60;65.50;;;;;;6287464;22;20002;-76
2023/02/23 05:33:22;;;;;;;7.20;5.32;;;15.60;65.50;;;;;;6287720;22;20370;-73
2023/02/23 05:35:48;;;;;;;8.95;5.50;;;15.50;65.40;;;;;;6287606;22;20019;-75
2023/02/23 05:38:13;;;;;;;9.68;5.65;;;15.60;65.50;;;;;;6287712;22;19996;-76
2023/02/23 05:40:39;;;;;;;6.65;5.28;;;15.60;65.40;;;;;;6287588;22;20041;-75
2023/02/23 05:43:05;;;;;;;8.75;5.25;;;15.60;65.40;;;;;;6287550;22;20019;-75
2023/02/23 05:45:32;;;;;;;8.07;5.38;;;15.60;65.40;;;;;;6287603;22;19999;-75
2023/02/23 05:47:58;;;;;;;7.13;5.55;;;15.60;65.40;;;;;;6287677;22;19996;-74
2023/02/23 05:50:24;;;;;;;9.00;5.40;;;15.60;65.40;;;;;;6287522;22;19992;-75
2023/02/23 05:52:50;;;;;;;8.50;5.78;;;15.60;65.40;;;;;;6277705;22;20000;-73
2023/02/23 05:55:15;;;;;;;5.82;4.90;;;15.60;65.40;;;;;;6287493;22;20480;-75
2023/02/23 05:57:41;;;;;;;7.75;5.28;;;15.60;65.40;;;;;;6287489;22;19996;-75
2023/02/23 06:00:08;;;;;;;7.63;5.10;;;15.60;65.50;;;;;;6250197;22;20086;-75
2023/02/23 06:02:35;;;;;;;8.18;4.80;;;15.60;65.50;;;;;;6276879;22;20427;-75
2023/02/23 06:05:01;;;;;;;8.95;5.45;;;15.60;65.40;;;;;;6250028;22;20366;-73
2023/02/23 06:07:26;;;;;;;6.65;4.40;;;15.60;65.40;;;;;;6287377;22;19996;-73
2023/02/23 06:09:52;;;;;;;7.53;4.80;;;15.60;65.40;;;;;;6287239;22;19996;-76
2023/02/23 06:12:17;;;;;;;5.85;5.05;;;15.60;65.40;;;;;;6287335;22;20035;-73
2023/02/23 06:14:43;;;;;;;5.47;4.53;;;15.70;65.50;;;;;;6287241;22;20398;-73
2023/02/23 06:17:09;;;;;;;6.55;5.20;;;15.70;65.40;;;;;;6287321;22;19996;-75
2023/02/23 06:19:34;;;;;;;8.60;4.97;;;15.70;65.40;;;;;;6287367;22;20026;-74
2023/02/23 06:22:00;;;;;;;5.43;4.68;;;15.70;65.40;;;;;;6287110;22;20054;-76
2023/02/23 06:24:26;;;;;;;6.20;4.18;;;15.70;65.40;;;;;;6287189;22;20351;-75
2023/02/23 06:26:51;;;;;;;8.23;5.60;;;15.70;65.40;;;;;;6291190;22;20004;-76
2023/02/23 06:29:17;;;;;;;6.05;5.15;;;15.70;65.40;;;;;;6253980;22;20098;-74
2023/02/23 06:31:43;;;;;;;6.57;4.82;;;15.70;65.40;;;;;;6287076;22;19992;-75
2023/02/23 06:34:10;;;;;;;6.35;5.10;;;15.70;65.40;;;;;;6277129;22;20331;-76
2023/02/23 06:36:36;;;;;;;5.95;4.57;;;15.70;65.40;;;;;;6277174;22;20378;-74
2023/02/23 06:39:03;;;;;;;5.97;4.95;;;15.70;65.40;;;;;;6287094;22;20034;-75
2023/02/23 06:41:30;;;;;;;7.82;4.82;;;15.70;65.40;;;;;;6287071;22;20006;-75
2023/02/23 06:43:55;;;;;;;5.30;4.68;;;15.70;65.50;;;;;;6286923;22;20018;-76
2023/02/23 06:46:21;;;;;;;6.50;4.95;;;15.70;65.40;;;;;;6287000;22;19992;-76
2023/02/23 06:48:47;;;;;;;5.80;4.82;;;15.70;65.50;;;;;;6286987;22;20000;-75
2023/02/23 06:51:13;;;;;;;5.57;4.97;;;15.70;65.40;;;;;;6287008;22;20109;-76
2023/02/23 06:53:38;;;;;;;6.85;5.38;;;15.70;65.40;;;;;;6286954;22;20091;-76
2023/02/23 06:56:05;;;;;;;4.45;4.05;;;15.70;65.40;;;;;;6286910;22;20066;-76
2023/02/23 06:58:32;;;;;;;6.55;4.82;;;15.70;65.40;;;;;;6276850;22;19996;-75
2023/02/23 07:00:58;;;;;;;6.07;5.07;;;;;;;;;;6276721;22;19995;-76
2023/02/23 07:03:25;;;;;;;5.43;4.53;;;15.80;64.90;;;;;;6276359;22;20019;-76
2023/02/23 07:05:52;;;;;;;6.35;4.90;;;15.70;65.40;;;;;;6276695;22;20323;-76
2023/02/23 07:08:18;;;;;;;7.40;5.47;;;15.70;65.50;;;;;;6276717;22;19995;-76
2023/02/23 07:10:45;;;;;;;5.80;5.20;;;15.70;65.40;;;;;;6276298;22;20049;-76
2023/02/23 07:13:11;;;;;;;6.65;5.20;;;15.70;65.40;;;;;;6276747;22;20015;-75
2023/02/23 07:15:39;;;;;;;7.35;5.68;;;15.80;65.50;;;;;;6276878;22;19999;-76
2023/02/23 07:18:05;;;;;;;6.75;5.45;;;15.80;65.50;;;;;;6276207;22;20431;-76
2023/02/23 07:20:32;;;;;;;7.13;4.88;;;15.80;65.40;;;;;;6276665;22;20059;-76
2023/02/23 07:23:02;;;;;;;6.40;5.00;;;15.80;65.40;;;;;;6276566;22;20010;-76
2023/02/23 07:25:29;;;;;;;7.50;5.22;;;15.80;65.40;;;;;;6276325;22;20473;-76
2023/02/23 07:27:57;;;;;;;4.82;4.32;;;15.80;65.40;;;;;;6276552;22;20007;-75
2023/02/23 07:30:24;;;;;;;6.80;5.03;;;15.80;65.50;;;;;;6277006;22;19992;-75
2023/02/23 07:32:53;;;;;;;5.68;4.63;;;15.80;65.50;;;;;;6276687;22;19999;-77
2023/02/23 07:35:19;;;;;;;5.45;4.35;;;15.80;65.50;;;;;;6275989;22;19991;-77
2023/02/23 07:37:45;;;;;;;5.80;4.30;;;15.80;65.40;;;;;;6276470;22;20307;-77
2023/02/23 07:40:12;;;;;;;5.43;4.63;;;15.80;65.40;;;;;;6276156;22;20002;-76
2023/02/23 07:42:38;;;;;;;6.38;4.38;;;15.80;65.40;;;;;;6276414;22;20499;-77
2023/02/23 07:45:04;;;;;;;4.75;4.03;;;15.90;65.40;;;;;;6276435;22;20055;-76
2023/02/23 07:47:31;;;;;;;4.82;3.88;;;15.80;65.40;;;;;;6275614;22;19996;-76
2023/02/23 07:50:02;;;;;;;4.70;3.67;;;15.90;65.40;;;;;;6276392;22;20041;-74
2023/02/23 07:52:28;;;;;;;4.38;3.53;;;15.90;65.30;;;;;;6276063;22;19995;-73
2023/02/23 07:54:54;;;;;;;4.63;3.83;;;15.90;65.40;;;;;;6275858;22;20003;-76
2023/02/23 07:57:20;;;;;;;4.53;4.00;;;15.90;65.40;;;;;;6275401;22;20045;-76
2023/02/23 07:59:49;;;;;;;4.10;3.70;;;15.90;65.40;;;;;;6285774;22;19995;-75
2023/02/23 08:02:15;;;;;;;6.10;3.30;;;15.90;65.40;;;;;;6275679;22;20041;-75
2023/02/23 08:04:42;;;;;;;4.95;3.67;;;15.90;65.40;;;;;;6285946;22;20067;-76
2023/02/23 08:07:08;;;;;;;5.32;4.25;;;15.90;65.50;;;;;;6285843;22;20449;-75
2023/02/23 08:09:34;;;;;;;5.00;3.75;;;15.90;65.50;;;;;;6284434;22;20049;-75
2023/02/23 08:12:01;;;;;;;6.72;3.75;;;15.90;65.40;;;;;;6274435;22;20091;-75
2023/02/23 08:14:27;;;;;;;7.00;3.60;;;15.90;65.40;;;;;;6275496;22;19998;-75
2023/02/23 08:16:53;;;;;;;6.15;3.40;;;15.90;65.90;;;;;;6275744;22;19996;-75
2023/02/23 08:19:22;;;;;;;5.70;3.88;;;15.90;65.50;;;;;;6275692;22;20002;-75
2023/02/23 08:21:49;;;;;;;4.97;3.77;;;15.90;65.40;;;;;;6275320;22;20099;-75
2023/02/23 08:24:16;;;;;;;4.72;3.10;;;16.00;65.50;;;;;;6275371;22;20468;-75
2023/02/23 08:26:42;;;;;;;4.13;3.60;;;15.90;66.10;;;;;;6275334;22;20007;-75
2023/02/23 08:29:09;;;;;;;5.53;3.17;;;16.00;65.50;;;;;;6275301;22;20443;-75
2023/02/23 08:31:35;;;;;;;6.25;3.38;;;16.00;65.50;;;;;;6275763;22;20003;-75
2023/02/23 08:34:01;;;;;;;4.65;3.03;;;16.00;65.40;;;;;;6275670;22;20365;-76
2023/02/23 08:36:27;;;;;;;4.88;3.63;;;16.00;65.40;;;;;;6275539;22;20308;-75
2023/02/23 08:38:54;;;;;;;4.00;3.60;;;16.00;65.40;;;;;;6275677;22;20078;-75
2023/02/23 08:41:20;;;;;;;3.65;2.80;;;16.00;65.40;;;;;;6275196;22;20071;-75
2023/02/23 08:43:47;;;;;;;3.40;3.10;;;16.00;65.30;;;;;;6275065;22;20453;-75
2023/02/23 08:46:15;;;;;;;4.85;3.65;;;16.00;65.30;;;;;;6275556;22;19996;-75
2023/02/23 08:48:41;;;;;;;4.28;2.95;;;16.00;65.30;;;;;;6275265;22;20067;-75
2023/02/23 08:51:08;;;;;;;4.45;3.20;;;16.00;65.30;;;;;;6275173;22;20438;-75
2023/02/23 08:53:34;;;;;;;3.40;2.97;;;16.00;65.30;;;;;;6275573;22;19995;-75
2023/02/23 08:56:03;;;;;;;3.33;2.85;;;16.10;65.40;;;;;;6275083;22;20030;-75
2023/02/23 08:58:30;;;;;;;4.10;3.00;;;16.10;65.40;;;;;;6275367;22;20348;-76
2023/02/23 09:00:57;;;;;;;3.30;2.83;;;16.10;65.40;;;;;;6275180;22;20439;-76
2023/02/23 09:03:25;;;;;;;3.13;2.70;;;16.10;65.40;;;;;;6275056;22;20010;-75
2023/02/23 09:05:51;;;;;;;3.78;3.00;;;16.10;65.40;;;;;;6275478;22;20075;-80
2023/02/23 09:08:17;;;;;;;3.65;3.05;;;16.10;65.40;;;;;;6275225;22;20099;-80
2023/02/23 09:10:43;;;;;;;3.72;2.47;;;16.10;65.40;;;;;;6275481;22;20050;-79
2023/02/23 09:13:10;;;;;;;4.15;2.55;;;16.20;65.40;;;;;;6275222;22;20002;-79
2023/02/23 09:15:40;;;;;;;2.85;2.45;;;16.10;65.40;;;;;;6275424;22;20003;-80
2023/02/23 09:18:09;;;;;;;2.97;2.50;;;16.10;65.40;;;;;;6275601;22;19999;-82
2023/02/23 09:20:35;;;;;;;3.97;2.95;;;16.10;65.30;;;;;;6277049;22;19995;-83
2023/02/23 09:23:01;;;;;;;3.85;2.70;;;16.10;65.30;;;;;;6277327;22;20347;-83
2023/02/23 09:25:28;;;;;;;2.67;2.03;;;16.10;66.00;;;;;;6285395;22;20008;-80
2023/02/23 09:28:01;;;;;;;4.20;2.83;;;16.20;65.40;;;;;;6285623;22;20474;-81
2023/02/23 09:30:27;;;;;;;3.10;2.80;;;16.20;65.40;;;;;;6285542;22;20363;-80
2023/02/23 09:32:54;;;;;;;4.05;3.33;;;16.20;65.40;;;;;;6285494;22;19995;-81
2023/02/23 09:35:21;;;;;;;4.22;3.13;;;16.20;65.40;;;;;;6285547;22;19999;-81
2023/02/23 09:37:50;;;;;;;4.95;2.78;;;16.20;65.40;;;;;;6275107;22;20441;-81
2023/02/23 09:40:22;;;;;;;3.20;2.78;;;16.20;65.40;;;;;;6285523;22;19992;-80
2023/02/23 09:43:04;;;;;;;3.95;2.90;;;16.20;65.30;;;;;;6285364;22;20003;-81
2023/02/23 09:45:40;;;;;;;2.92;2.47;;;16.20;65.30;;;;;;6285554;22;20007;-81
2023/02/23 09:48:12;;;;;;;2.78;2.35;;;16.20;65.30;;;;;;6285553;22;20000;-81
2023/02/23 09:50:40;;;;;;;2.55;2.35;;;16.20;65.40;;;;;;6285371;22;19995;-81
2023/02/23 09:53:19;;;;;;;3.10;2.38;;;16.20;65.40;;;;;;6285306;22;19995;-81
2023/02/23 09:55:46;;;;;;;2.33;2.10;;;16.20;65.40;;;;;;6285306;22;20006;-81
2023/02/23 09:58:23;;;;;;;3.25;2.28;;;16.20;65.40;;;;;;6285216;22;19996;-81
2023/02/23 10:01:14;;;;;;;2.67;2.42;;;16.20;65.40;;;;;;6285520;22;20031;-80
2023/02/23 10:04:06;;;;;;;3.95;2.28;;;16.20;65.30;;;;;;6207608;22;20053;-79
2023/02/23 10:06:33;;;;;;;2.63;2.35;;;16.20;65.40;;;;;;6207741;22;20090;-81
2023/02/23 10:09:41;;;;;;;2.92;2.25;;;16.20;65.30;;;;;;6285353;22;19996;-81
2023/02/23 10:12:12;;;;;;;2.35;2.13;;;16.30;65.40;;;;;;6258754;22;20000;-81
2023/02/23 10:14:56;;;;;;;2.80;2.28;;;16.30;65.40;;;;;;6287437;22;20312;-81
2023/02/23 10:17:51;;;;;;;2.42;1.88;;;16.30;65.40;;;;;;6277396;22;20004;-81
2023/02/23 10:20:40;;;;;;;4.35;2.00;;;16.30;65.40;;;;;;6277447;22;20000;-81
2023/02/23 10:23:14;;;;;;;2.83;2.00;;;16.30;65.30;;;;;;6277248;22;20011;-81
2023/02/23 10:25:47;;;;;;;1.98;1.77;;;16.40;65.30;;;;;;6276873;22;20446;-81
2023/02/23 10:28:16;;;;;;;1.50;1.38;;;16.40;65.90;;;;;;6287600;22;20370;-81
2023/02/23 10:30:43;;;;;;;3.25;1.95;;;16.40;65.20;;;;;;6277157;22;20436;-81
2023/02/23 10:33:32;;;;;;;1.85;1.50;;;16.40;65.20;;;;;;6277373;22;20427;-81
2023/02/23 10:36:15;;;;;;;2.38;2.08;;;16.40;65.20;;;;;;6277163;22;20003;-81
2023/02/23 10:38:41;;;;;;;2.00;1.55;;;16.40;65.20;;;;;;6287024;22;20054;-81
2023/02/23 10:41:09;;;;;;;1.80;1.70;;;16.40;65.20;;;;;;6276779;22;20075;-81
2023/02/23 10:43:35;;;;;;;2.35;1.58;;;16.50;65.20;;;;;;6276969;22;20004;-80
2023/02/23 10:46:03;;;;;;;1.85;1.50;;;16.40;65.20;;;;;;6277240;22;20331;-81
2023/02/23 10:48:40;;;;;;;1.58;1.48;;;16.50;65.30;;;;;;6276604;22;20006;-81
2023/02/23 10:51:12;;;;;;;1.65;1.50;;;16.40;65.20;;;;;;6277216;22;19991;-81
2023/02/23 10:53:38;;;;;;;2.25;1.40;;;16.50;65.30;;;;;;6277156;22;20078;-81
2023/02/23 10:56:12;;;;;;;2.00;1.50;;;16.50;65.30;;;;;;6250247;22;19999;-78
2023/02/23 10:58:48;;;;;;;3.45;1.70;;;16.50;65.30;;;;;;6286931;22;20220;-78
2023/02/23 11:01:30;;;;;;;1.20;1.10;;;16.50;73.70;;;;;;6286930;22;20023;-77
2023/02/23 11:03:55;;;;;;;1.50;1.40;;;16.50;65.30;;;;;;6286641;22;20011;-79
2023/02/23 11:06:38;;;;;;;1.50;1.40;;;16.50;65.20;;;;;;6276636;22;20324;-79
2023/02/23 11:09:25;;;;;;;1.52;1.30;;;16.60;65.40;;;;;;6276276;22;19996;-79
2023/02/23 11:12:01;;;;;;;1.38;1.27;;;16.60;65.30;;;;;;6276780;22;20007;-79
2023/02/23 11:14:30;;;;;;;1.52;1.30;;;16.60;65.40;;;;;;6276772;22;20000;-79
2023/02/23 11:16:58;;;;;;;1.20;1.10;;;16.60;65.40;;;;;;6276638;22;19995;-79
2023/02/23 11:19:32;;;;;;;1.42;1.33;;;16.60;66.20;;;;;;6276136;22;20065;-80
2023/02/23 11:21:59;;;;;;;1.52;1.42;;;16.60;65.40;;;;;;6275928;22;20027;-80
2023/02/23 11:24:29;;;;;;;1.20;1.08;;;16.60;65.40;;;;;;6276424;22;20356;-80
2023/02/23 11:27:02;;;;;;;1.38;1.10;;;16.60;65.40;;;;;;6276084;22;20031;-78
2023/02/23 11:29:38;;;;;;;1.42;1.15;;;16.60;66.10;;;;;;6276581;22;20007;-80
2023/02/23 11:32:14;;;;;;;2.30;0.90;;;16.60;65.50;;;;;;6276302;22;20000;-78
2023/02/23 11:34:42;;;;;;;1.65;1.05;;;16.60;65.60;;;;;;6276218;22;20016;-80
2023/02/23 11:37:17;;;;;;;1.42;1.33;;;16.60;65.50;;;;;;6276532;22;19999;-78
2023/02/23 11:39:56;;;;;;;3.30;1.63;;;16.60;65.40;;;;;;6276364;22;20015;-80
2023/02/23 11:42:24;;;;;;;2.05;1.40;;;16.60;65.50;;;;;;6286281;22;20012;-80
2023/02/23 11:45:16;;;;;;;2.35;1.20;;;16.60;65.50;;;;;;6276337;22;19996;-80
2023/02/23 11:47:54;;;;;;;1.13;1.05;;;16.60;65.50;;;;;;6286078;22;19995;-80
2023/02/23 11:50:29;;;;;;;0.98;0.90;;;16.60;65.50;;;;;;6248800;22;20023;-80
2023/02/23 11:53:28;;;;;;;1.95;1.00;;;16.60;65.50;;;;;;6286628;22;20007;-80
2023/02/23 11:56:06;;;;;;;1.45;0.98;;;16.60;65.50;;;;;;6286180;22;20158;-80
2023/02/23 11:58:43;;;;;;;1.75;1.20;;;16.60;65.50;;;;;;6286200;22;20000;-80
2023/02/23 12:01:12;;;;;;;1.25;1.13;;;16.70;73.90;;;;;;6285959;22;20329;-80
2023/02/23 12:03:58;;;;;;;1.27;1.10;;;16.60;65.40;;;;;;6248939;22;20007;-80
2023/02/23 12:06:29;;;;;;;1.20;1.00;;;16.70;65.60;;;;;;6275133;22;20362;-80
2023/02/23 12:09:04;;;;;;;1.40;1.30;;;16.60;65.40;;;;;;6286116;22;20381;-80
2023/02/23 12:11:36;;;;;;;1.60;1.40;;;16.70;65.60;;;;;;6285973;22;19992;-80
2023/02/23 12:14:19;;;;;;;1.40;1.20;;;16.60;65.40;;;;;;6285962;22;20078;-80
2023/02/23 12:16:50;;;;;;;1.55;1.40;;;16.70;65.50;;;;;;6283857;22;19995;-79
2023/02/23 12:19:48;;;;;;;1.23;0.95;;;16.70;65.40;;;;;;6275456;22;19999;-79
2023/02/23 12:22:22;;;;;;;1.90;0.90;;;16.70;65.40;;;;;;6274709;22;20027;-79
2023/02/23 12:24:54;;;;;;;1.33;1.17;;;16.70;65.40;;;;;;6275317;22;20023;-79
2023/02/23 12:27:23;;;;;;;1.27;0.80;;;16.70;65.40;;;;;;6275546;22;20362;-79
2023/02/23 12:30:11;;;;;;;1.05;0.95;;;16.70;65.30;;;;;;6275775;22;20000;-79
2023/02/23 12:32:55;;;;;;;2.15;0.93;;;16.70;65.30;;;;;;6275314;22;20427;-80
2023/02/23 12:35:41;;;;;;;0.70;0.70;;;16.70;65.30;;;;;;6275841;22;19999;-80
2023/02/23 12:38:27;;;;;;;1.20;0.95;;;16.70;65.30;;;;;;6275444;22;19996;-80
2023/02/23 12:41:11;;;;;;;0.63;0.60;;;16.70;65.30;;;;;;6275430;22;20000;-81
2023/02/23 12:43:50;;;;;;;1.83;1.10;;;16.70;65.20;;;;;;6275545;22;20011;-81
2023/02/23 12:46:23;;;;;;;1.67;1.17;;;16.70;65.20;;;;;;6275851;22;20000;-81
2023/02/23 12:49:01;;;;;;;1.23;1.08;;;16.70;65.20;;;;;;6275751;22;20003;-81
2023/02/23 12:51:38;;;;;;;2.33;1.33;;;16.70;65.20;;;;;;6275936;22;20022;-81
2023/02/23 12:54:04;;;;;;;1.67;0.90;;;16.70;65.10;;;;;;6275349;22;20070;-81
2023/02/23 12:56:47;;;;;;;0.93;0.80;;;16.70;65.10;;;;;;6275492;22;20071;-81
2023/02/23 12:59:20;;;;;;;0.80;0.80;;;16.70;65.10;;;;;;6275832;22;20335;-80
2023/02/23 13:01:53;;;;;;;2.45;1.15;;;16.70;65.00;;;;;;6275775;22;20003;-81
2023/02/23 13:04:40;;;;;;;1.42;1.00;;;16.70;65.00;;;;;;6275972;22;20012;-81
2023/02/23 13:07:43;;;;;;;1.10;1.00;;;16.70;65.10;;;;;;6275855;22;20083;-81
2023/02/23 13:10:19;;;;;;;1.35;1.13;;;16.70;65.00;;;;;;6275786;22;20049;-81
2023/02/23 13:12:59;;;;;;;3.90;1.13;;;16.70;65.00;;;;;;6275449;22;20053;-80
2023/02/23 13:15:49;;;;;;;1.38;0.80;;;16.70;65.10;;;;;;6275765;22;20074;-81
2023/02/23 13:18:46;;;;;;;1.25;0.75;;;16.70;65.00;;;;;;6275717;22;20000;-81
2023/02/23 13:21:17;;;;;;;2.88;1.00;;;16.70;65.00;;;;;;6273375;22;20006;-82
2023/02/23 13:24:11;;;;;;;2.40;1.00;;;16.80;65.00;;;;;;6275577;22;20045;-81
2023/02/23 13:27:04;;;;;;;1.05;0.70;;;16.70;64.90;;;;;;6275190;22;20319;-81
2023/02/23 13:29:38;;;;;;;1.13;0.93;;;16.80;64.90;;;;;;6275672;22;20042;-82
2023/02/23 13:32:13;;;;;;;1.48;1.08;;;16.80;64.80;;;;;;6275009;22;20522;-79
2023/02/23 13:34:48;;;;;;;0.93;0.82;;;16.80;64.70;;;;;;6285534;22;20003;-80
2023/02/23 13:37:19;;;;;;;1.35;1.00;;;16.80;64.70;;;;;;6285586;22;20478;-80
2023/02/23 13:39:46;;;;;;;1.23;0.93;;;16.80;64.80;;;;;;6275638;22;20000;-79
2023/02/23 13:42:26;;;;;;;1.10;1.00;;;16.80;64.70;;;;;;6285583;22;20000;-77
2023/02/23 13:44:57;;;;;;;;;;;16.80;64.70;;;;;;6286533;22;19996;-79
2023/02/23 13:47:38;;;;;;;0.82;0.77;;;16.80;64.80;;;;;;6287487;22;19922;-77
2023/02/23 13:50:06;;;;;;;;;;;16.80;64.80;;;;;;6287926;22;20504;-79
2023/02/23 13:52:40;;;;;;;1.05;0.90;;;16.80;64.80;;;;;;6287417;22;19982;-78
2023/02/23 13:55:26;;;;;;;1.85;1.00;;;16.80;64.80;;;;;;6287281;22;20000;-78
2023/02/23 13:58:03;;;;;;;1.00;0.90;;;17.30;65.10;;;;;;6287309;22;20003;-81
2023/02/23 14:00:29;;;;;;;1.88;1.20;;;16.80;64.80;;;;;;6287346;22;20004;-78
2023/02/23 14:02:55;;;;;;;3.38;0.80;;;16.90;64.90;;;;;;6287169;22;20431;-79
2023/02/23 14:05:23;;;;;;;1.00;0.90;;;16.80;64.80;;;;;;6287193;22;19991;-79
2023/02/23 14:07:56;;;;;;;0.88;0.73;;;16.80;64.80;;;;;;6287171;22;20369;-79
2023/02/23 14:10:25;;;;;;;1.20;0.82;;;17.70;65.40;;;;;;6287194;22;20093;-79
2023/02/23 14:13:11;;;;;;;1.15;1.00;;;16.80;65.60;;;;;;6287168;22;20430;-80
2023/02/23 14:15:37;;;;;;;1.50;0.98;;;16.80;64.80;;;;;;6287268;22;20435;-80
2023/02/23 14:18:27;;;;;;;1.67;1.00;;;16.90;73.20;;;;;;6277312;22;20000;-81
2023/02/23 14:21:01;;;;;;;2.65;1.10;;;16.80;64.80;;;;;;6277198;22;19996;-81
2023/02/23 14:23:33;;;;;;;1.52;1.10;;;16.80;64.80;;;;;;6277080;22;20008;-82
2023/02/23 14:26:35;;;;;;;2.13;0.95;;;16.80;64.80;;;;;;6276722;22;20012;-81
2023/02/23 14:29:21;;;;;;;0.95;0.88;;;16.90;64.90;;;;;;6277138;22;19996;-81